sensor_id;sensor_type;location;lat;lon;timestamp;P1;durP1;ratioP1;P2;durP2;ratioP2
36291;SDS011;22327;51.208;6.418;2024-03-29T00:02:09;3.50;;;0.60;;
36291;SDS011;22327;51.208;6.418;2024-03-29T00:05:10;4.90;;;1.00;;
36291;SDS011;22327;51.208;6.418;2024-03-29T00:08:10;4.05;;;0.50;;
36291;SDS011;22327;51.208;6.418;2024-03-29T00:11:11;3.65;;;0.60;;
36291;SDS011;22327;51.208;6.418;2024-03-29T00:14:12;4.30;;;0.60;;
36291;SDS011;22327;51.208;6.418;2024-03-29T00:17:12;2.42;;;0.40;;
36291;SDS011;22327;51.208;6.418;2024-03-29T00:20:13;3.03;;;0.52;;
36291;SDS011;22327;51.208;6.418;2024-03-29T00:23:13;4.35;;;0.55;;
36291;SDS011;22327;51.208;6.418;2024-03-29T00:26:14;3.20;;;0.70;;
36291;SDS011;22327;51.208;6.418;2024-03-29T00:29:14;1.70;;;0.47;;
36291;SDS011;22327;51.208;6.418;2024-03-29T00:32:15;3.25;;;0.77;;
36291;SDS011;22327;51.208;6.418;2024-03-29T00:35:15;3.78;;;0.65;;
36291;SDS011;22327;51.208;6.418;2024-03-29T00:38:16;2.55;;;0.50;;
36291;SDS011;22327;51.208;6.418;2024-03-29T00:41:16;1.58;;;0.30;;
36291;SDS011;22327;51.208;6.418;2024-03-29T00:44:17;2.53;;;0.50;;
36291;SDS011;22327;51.208;6.418;2024-03-29T00:47:18;3.55;;;0.40;;
36291;SDS011;22327;51.208;6.418;2024-03-29T00:50:18;1.38;;;0.40;;
36291;SDS011;22327;51.208;6.418;2024-03-29T00:53:19;4.80;;;0.40;;
36291;SDS011;22327;51.208;6.418;2024-03-29T00:56:20;2.05;;;0.60;;
36291;SDS011;22327;51.208;6.418;2024-03-29T00:59:20;3.65;;;0.98;;
36291;SDS011;22327;51.208;6.418;2024-03-29T01:02:21;1.55;;;0.50;;
36291;SDS011;22327;51.208;6.418;2024-03-29T01:05:22;3.70;;;0.40;;
36291;SDS011;22327;51.208;6.418;2024-03-29T01:08:22;3.08;;;0.70;;
36291;SDS011;22327;51.208;6.418;2024-03-29T01:11:23;5.03;;;3.05;;
36291;SDS011;22327;51.208;6.418;2024-03-29T01:14:24;3.00;;;0.40;;
36291;SDS011;22327;51.208;6.418;2024-03-29T01:17:24;1.50;;;0.32;;
36291;SDS011;22327;51.208;6.418;2024-03-29T01:20:25;2.92;;;0.60;;
36291;SDS011;22327;51.208;6.418;2024-03-29T01:23:25;1.83;;;0.50;;
36291;SDS011;22327;51.208;6.418;2024-03-29T01:26:26;2.17;;;0.50;;
36291;SDS011;22327;51.208;6.418;2024-03-29T01:29:26;2.13;;;0.50;;
36291;SDS011;22327;51.208;6.418;2024-03-29T01:32:27;2.97;;;0.70;;
36291;SDS011;22327;51.208;6.418;2024-03-29T01:35:28;1.15;;;0.52;;
36291;SDS011;22327;51.208;6.418;2024-03-29T01:38:28;2.42;;;0.43;;
36291;SDS011;22327;51.208;6.418;2024-03-29T01:41:29;4.13;;;0.65;;
36291;SDS011;22327;51.208;6.418;2024-03-29T01:44:30;3.72;;;0.38;;
36291;SDS011;22327;51.208;6.418;2024-03-29T01:47:30;1.98;;;0.35;;
36291;SDS011;22327;51.208;6.418;2024-03-29T01:50:31;3.92;;;0.60;;
36291;SDS011;22327;51.208;6.418;2024-03-29T01:53:33;1.40;;;0.50;;
36291;SDS011;22327;51.208;6.418;2024-03-29T01:56:34;2.33;;;0.40;;
36291;SDS011;22327;51.208;6.418;2024-03-29T01:59:36;3.30;;;0.55;;
36291;SDS011;22327;51.208;6.418;2024-03-29T02:02:38;1.63;;;0.40;;
36291;SDS011;22327;51.208;6.418;2024-03-29T02:05:41;0.70;;;0.40;;
36291;SDS011;22327;51.208;6.418;2024-03-29T02:08:43;0.77;;;0.30;;
36291;SDS011;22327;51.208;6.418;2024-03-29T02:11:44;1.35;;;0.35;;
36291;SDS011;22327;51.208;6.418;2024-03-29T02:14:44;2.08;;;0.90;;
36291;SDS011;22327;51.208;6.418;2024-03-29T02:17:45;4.05;;;0.63;;
36291;SDS011;22327;51.208;6.418;2024-03-29T02:20:45;1.38;;;0.50;;
36291;SDS011;22327;51.208;6.418;2024-03-29T02:23:46;0.50;;;0.30;;
36291;SDS011;22327;51.208;6.418;2024-03-29T02:26:50;0.50;;;0.30;;
36291;SDS011;22327;51.208;6.418;2024-03-29T02:29:51;1.00;;;0.30;;
36291;SDS011;22327;51.208;6.418;2024-03-29T02:32:52;2.35;;;0.47;;
36291;SDS011;22327;51.208;6.418;2024-03-29T02:35:53;1.48;;;0.30;;
36291;SDS011;22327;51.208;6.418;2024-03-29T02:38:53;3.15;;;0.45;;
36291;SDS011;22327;51.208;6.418;2024-03-29T02:41:54;1.75;;;0.50;;
36291;SDS011;22327;51.208;6.418;2024-03-29T02:44:54;4.00;;;0.38;;
36291;SDS011;22327;51.208;6.418;2024-03-29T02:47:55;1.67;;;0.30;;
36291;SDS011;22327;51.208;6.418;2024-03-29T02:50:56;1.58;;;0.32;;
36291;SDS011;22327;51.208;6.418;2024-03-29T02:53:57;3.45;;;0.50;;
36291;SDS011;22327;51.208;6.418;2024-03-29T02:56:57;2.72;;;0.50;;
36291;SDS011;22327;51.208;6.418;2024-03-29T02:59:58;2.10;;;0.38;;
36291;SDS011;22327;51.208;6.418;2024-03-29T03:02:58;3.45;;;0.45;;
36291;SDS011;22327;51.208;6.418;2024-03-29T03:05:58;3.25;;;0.50;;
36291;SDS011;22327;51.208;6.418;2024-03-29T03:08:59;1.17;;;0.30;;
36291;SDS011;22327;51.208;6.418;2024-03-29T03:12:18;5.00;;;0.65;;
36291;SDS011;22327;51.208;6.418;2024-03-29T03:15:19;1.33;;;0.40;;
36291;SDS011;22327;51.208;6.418;2024-03-29T03:18:19;5.00;;;0.30;;
36291;SDS011;22327;51.208;6.418;2024-03-29T03:21:20;3.63;;;1.05;;
36291;SDS011;22327;51.208;6.418;2024-03-29T03:24:21;3.65;;;0.45;;
36291;SDS011;22327;51.208;6.418;2024-03-29T03:27:21;2.38;;;0.20;;
36291;SDS011;22327;51.208;6.418;2024-03-29T03:30:23;2.53;;;0.40;;
36291;SDS011;22327;51.208;6.418;2024-03-29T03:33:23;1.25;;;0.40;;
36291;SDS011;22327;51.208;6.418;2024-03-29T03:36:24;1.63;;;0.50;;
36291;SDS011;22327;51.208;6.418;2024-03-29T03:39:25;0.98;;;0.30;;
36291;SDS011;22327;51.208;6.418;2024-03-29T03:42:25;3.13;;;0.35;;
36291;SDS011;22327;51.208;6.418;2024-03-29T03:45:26;1.95;;;0.30;;
36291;SDS011;22327;51.208;6.418;2024-03-29T03:48:26;0.50;;;0.22;;
36291;SDS011;22327;51.208;6.418;2024-03-29T03:51:28;1.77;;;0.40;;
36291;SDS011;22327;51.208;6.418;2024-03-29T03:54:29;1.05;;;0.20;;
36291;SDS011;22327;51.208;6.418;2024-03-29T03:57:30;2.95;;;0.40;;
36291;SDS011;22327;51.208;6.418;2024-03-29T04:00:30;2.85;;;0.40;;
36291;SDS011;22327;51.208;6.418;2024-03-29T04:03:31;1.55;;;0.30;;
36291;SDS011;22327;51.208;6.418;2024-03-29T04:06:31;2.50;;;0.28;;
36291;SDS011;22327;51.208;6.418;2024-03-29T04:09:32;1.20;;;0.40;;
36291;SDS011;22327;51.208;6.418;2024-03-29T04:12:32;2.00;;;0.38;;
36291;SDS011;22327;51.208;6.418;2024-03-29T04:15:33;2.78;;;0.45;;
36291;SDS011;22327;51.208;6.418;2024-03-29T04:18:34;1.48;;;0.20;;
36291;SDS011;22327;51.208;6.418;2024-03-29T04:21:34;1.52;;;0.38;;
36291;SDS011;22327;51.208;6.418;2024-03-29T04:24:35;1.15;;;0.55;;
36291;SDS011;22327;51.208;6.418;2024-03-29T04:27:35;2.83;;;0.65;;
36291;SDS011;22327;51.208;6.418;2024-03-29T04:30:36;1.92;;;0.30;;
36291;SDS011;22327;51.208;6.418;2024-03-29T04:33:36;1.08;;;0.40;;
36291;SDS011;22327;51.208;6.418;2024-03-29T04:36:37;0.40;;;0.40;;
36291;SDS011;22327;51.208;6.418;2024-03-29T04:39:38;1.55;;;0.47;;
36291;SDS011;22327;51.208;6.418;2024-03-29T04:42:39;1.05;;;0.35;;
36291;SDS011;22327;51.208;6.418;2024-03-29T04:45:39;2.05;;;0.30;;
36291;SDS011;22327;51.208;6.418;2024-03-29T04:48:41;2.08;;;0.40;;
36291;SDS011;22327;51.208;6.418;2024-03-29T04:51:42;1.55;;;0.40;;
36291;SDS011;22327;51.208;6.418;2024-03-29T04:54:43;2.65;;;0.40;;
36291;SDS011;22327;51.208;6.418;2024-03-29T04:57:44;2.03;;;0.60;;
36291;SDS011;22327;51.208;6.418;2024-03-29T05:00:44;2.65;;;0.30;;
36291;SDS011;22327;51.208;6.418;2024-03-29T05:03:45;3.05;;;0.60;;
36291;SDS011;22327;51.208;6.418;2024-03-29T05:06:45;2.42;;;0.93;;
36291;SDS011;22327;51.208;6.418;2024-03-29T05:09:46;3.90;;;0.88;;
36291;SDS011;22327;51.208;6.418;2024-03-29T05:12:46;1.75;;;0.52;;
36291;SDS011;22327;51.208;6.418;2024-03-29T05:15:47;1.05;;;0.60;;
36291;SDS011;22327;51.208;6.418;2024-03-29T05:18:48;3.35;;;1.13;;
36291;SDS011;22327;51.208;6.418;2024-03-29T05:21:48;3.55;;;0.70;;
36291;SDS011;22327;51.208;6.418;2024-03-29T05:24:52;2.30;;;0.65;;
36291;SDS011;22327;51.208;6.418;2024-03-29T05:27:54;2.05;;;0.77;;
36291;SDS011;22327;51.208;6.418;2024-03-29T05:30:54;2.65;;;1.13;;
36291;SDS011;22327;51.208;6.418;2024-03-29T05:33:55;3.05;;;1.13;;
36291;SDS011;22327;51.208;6.418;2024-03-29T05:36:55;3.33;;;0.82;;
36291;SDS011;22327;51.208;6.418;2024-03-29T05:39:56;3.05;;;1.27;;
36291;SDS011;22327;51.208;6.418;2024-03-29T05:42:59;3.85;;;1.00;;
36291;SDS011;22327;51.208;6.418;2024-03-29T05:46:00;2.33;;;0.80;;
36291;SDS011;22327;51.208;6.418;2024-03-29T05:49:01;1.65;;;0.70;;
36291;SDS011;22327;51.208;6.418;2024-03-29T05:52:02;2.60;;;0.80;;
36291;SDS011;22327;51.208;6.418;2024-03-29T05:55:02;3.63;;;1.40;;
36291;SDS011;22327;51.208;6.418;2024-03-29T05:58:06;3.38;;;0.90;;
36291;SDS011;22327;51.208;6.418;2024-03-29T06:01:07;1.33;;;0.80;;
36291;SDS011;22327;51.208;6.418;2024-03-29T06:04:08;3.08;;;1.02;;
36291;SDS011;22327;51.208;6.418;2024-03-29T06:07:15;3.67;;;1.10;;
36291;SDS011;22327;51.208;6.418;2024-03-29T06:10:16;4.38;;;0.88;;
36291;SDS011;22327;51.208;6.418;2024-03-29T06:13:17;5.20;;;1.08;;
36291;SDS011;22327;51.208;6.418;2024-03-29T06:16:29;2.25;;;0.80;;
36291;SDS011;22327;51.208;6.418;2024-03-29T06:19:48;1.67;;;0.90;;
36291;SDS011;22327;51.208;6.418;2024-03-29T06:22:56;3.72;;;0.73;;
36291;SDS011;22327;51.208;6.418;2024-03-29T06:25:56;2.63;;;0.75;;
36291;SDS011;22327;51.208;6.418;2024-03-29T06:28:57;3.47;;;0.82;;
36291;SDS011;22327;51.208;6.418;2024-03-29T06:31:57;3.75;;;0.85;;
36291;SDS011;22327;51.208;6.418;2024-03-29T06:34:58;2.75;;;0.75;;
36291;SDS011;22327;51.208;6.418;2024-03-29T06:37:59;2.10;;;0.65;;
36291;SDS011;22327;51.208;6.418;2024-03-29T06:41:00;2.42;;;0.75;;
36291;SDS011;22327;51.208;6.418;2024-03-29T06:44:00;3.25;;;0.75;;
36291;SDS011;22327;51.208;6.418;2024-03-29T06:47:01;2.17;;;1.00;;
36291;SDS011;22327;51.208;6.418;2024-03-29T06:50:02;1.63;;;0.75;;
36291;SDS011;22327;51.208;6.418;2024-03-29T06:53:03;1.40;;;0.60;;
36291;SDS011;22327;51.208;6.418;2024-03-29T06:56:04;3.10;;;0.68;;
36291;SDS011;22327;51.208;6.418;2024-03-29T06:59:04;3.60;;;0.90;;
36291;SDS011;22327;51.208;6.418;2024-03-29T07:02:05;2.70;;;0.90;;
36291;SDS011;22327;51.208;6.418;2024-03-29T07:05:06;2.90;;;0.80;;
36291;SDS011;22327;51.208;6.418;2024-03-29T07:08:07;1.80;;;0.70;;
36291;SDS011;22327;51.208;6.418;2024-03-29T07:11:08;3.10;;;0.82;;
36291;SDS011;22327;51.208;6.418;2024-03-29T07:14:10;1.55;;;0.90;;
36291;SDS011;22327;51.208;6.418;2024-03-29T07:17:10;2.05;;;0.98;;
36291;SDS011;22327;51.208;6.418;2024-03-29T07:20:10;5.05;;;0.80;;
36291;SDS011;22327;51.208;6.418;2024-03-29T07:23:11;4.95;;;0.95;;
36291;SDS011;22327;51.208;6.418;2024-03-29T07:26:12;2.53;;;0.70;;
36291;SDS011;22327;51.208;6.418;2024-03-29T07:29:12;1.45;;;0.88;;
36291;SDS011;22327;51.208;6.418;2024-03-29T07:32:13;2.05;;;0.70;;
36291;SDS011;22327;51.208;6.418;2024-03-29T07:35:13;2.00;;;0.80;;
36291;SDS011;22327;51.208;6.418;2024-03-29T07:38:15;3.42;;;0.88;;
36291;SDS011;22327;51.208;6.418;2024-03-29T07:41:17;3.63;;;1.23;;
36291;SDS011;22327;51.208;6.418;2024-03-29T07:44:17;1.48;;;0.80;;
36291;SDS011;22327;51.208;6.418;2024-03-29T07:47:18;1.48;;;0.80;;
36291;SDS011;22327;51.208;6.418;2024-03-29T07:50:19;3.22;;;0.73;;
36291;SDS011;22327;51.208;6.418;2024-03-29T07:53:19;2.13;;;1.00;;
36291;SDS011;22327;51.208;6.418;2024-03-29T07:56:20;1.15;;;0.82;;
36291;SDS011;22327;51.208;6.418;2024-03-29T07:59:21;2.97;;;1.58;;
36291;SDS011;22327;51.208;6.418;2024-03-29T08:02:22;2.47;;;1.05;;
36291;SDS011;22327;51.208;6.418;2024-03-29T08:05:22;2.95;;;1.13;;
36291;SDS011;22327;51.208;6.418;2024-03-29T08:08:23;2.97;;;1.10;;
36291;SDS011;22327;51.208;6.418;2024-03-29T08:11:27;1.27;;;0.95;;
36291;SDS011;22327;51.208;6.418;2024-03-29T08:14:27;2.35;;;0.90;;
36291;SDS011;22327;51.208;6.418;2024-03-29T08:17:28;2.15;;;0.70;;
36291;SDS011;22327;51.208;6.418;2024-03-29T08:20:28;2.65;;;1.00;;
36291;SDS011;22327;51.208;6.418;2024-03-29T08:23:29;2.58;;;0.90;;
36291;SDS011;22327;51.208;6.418;2024-03-29T08:26:30;2.47;;;0.95;;
36291;SDS011;22327;51.208;6.418;2024-03-29T08:29:31;4.30;;;1.15;;
36291;SDS011;22327;51.208;6.418;2024-03-29T08:32:32;3.03;;;0.80;;
36291;SDS011;22327;51.208;6.418;2024-03-29T08:35:33;0.82;;;0.73;;
36291;SDS011;22327;51.208;6.418;2024-03-29T08:38:34;1.77;;;0.80;;
36291;SDS011;22327;51.208;6.418;2024-03-29T08:41:35;1.65;;;0.70;;
36291;SDS011;22327;51.208;6.418;2024-03-29T08:44:35;3.28;;;1.00;;
36291;SDS011;22327;51.208;6.418;2024-03-29T08:47:36;2.45;;;0.73;;
36291;SDS011;22327;51.208;6.418;2024-03-29T08:50:36;2.40;;;1.00;;
36291;SDS011;22327;51.208;6.418;2024-03-29T08:53:37;1.50;;;0.90;;
36291;SDS011;22327;51.208;6.418;2024-03-29T08:56:37;1.10;;;0.70;;
36291;SDS011;22327;51.208;6.418;2024-03-29T08:59:40;2.47;;;0.98;;
36291;SDS011;22327;51.208;6.418;2024-03-29T09:02:41;1.67;;;0.90;;
36291;SDS011;22327;51.208;6.418;2024-03-29T09:05:42;1.75;;;0.85;;
36291;SDS011;22327;51.208;6.418;2024-03-29T09:08:43;3.33;;;1.60;;
36291;SDS011;22327;51.208;6.418;2024-03-29T09:11:43;1.40;;;0.82;;
36291;SDS011;22327;51.208;6.418;2024-03-29T09:14:44;2.78;;;1.08;;
36291;SDS011;22327;51.208;6.418;2024-03-29T09:17:46;2.92;;;0.95;;
36291;SDS011;22327;51.208;6.418;2024-03-29T09:20:46;1.33;;;0.80;;
36291;SDS011;22327;51.208;6.418;2024-03-29T09:23:56;1.98;;;0.80;;
36291;SDS011;22327;51.208;6.418;2024-03-29T09:26:56;2.20;;;0.90;;
36291;SDS011;22327;51.208;6.418;2024-03-29T09:29:57;1.35;;;0.70;;
36291;SDS011;22327;51.208;6.418;2024-03-29T09:32:57;1.95;;;0.68;;
36291;SDS011;22327;51.208;6.418;2024-03-29T09:35:58;2.28;;;0.60;;
36291;SDS011;22327;51.208;6.418;2024-03-29T09:38:59;0.73;;;0.60;;
36291;SDS011;22327;51.208;6.418;2024-03-29T09:42:00;1.90;;;0.70;;
36291;SDS011;22327;51.208;6.418;2024-03-29T09:45:03;1.77;;;0.70;;
36291;SDS011;22327;51.208;6.418;2024-03-29T09:48:05;1.05;;;0.80;;
36291;SDS011;22327;51.208;6.418;2024-03-29T09:51:07;0.45;;;0.45;;
36291;SDS011;22327;51.208;6.418;2024-03-29T09:54:09;1.13;;;0.50;;
36291;SDS011;22327;51.208;6.418;2024-03-29T09:57:13;0.60;;;0.60;;
36291;SDS011;22327;51.208;6.418;2024-03-29T10:00:14;0.90;;;0.55;;
36291;SDS011;22327;51.208;6.418;2024-03-29T10:03:14;1.73;;;0.90;;
36291;SDS011;22327;51.208;6.418;2024-03-29T10:06:19;0.88;;;0.40;;
36291;SDS011;22327;51.208;6.418;2024-03-29T10:09:21;1.90;;;0.57;;
36291;SDS011;22327;51.208;6.418;2024-03-29T10:12:22;1.15;;;0.50;;
36291;SDS011;22327;51.208;6.418;2024-03-29T10:15:24;1.73;;;0.40;;
36291;SDS011;22327;51.208;6.418;2024-03-29T10:18:27;0.95;;;0.55;;
36291;SDS011;22327;51.208;6.418;2024-03-29T10:21:28;1.05;;;0.63;;
36291;SDS011;22327;51.208;6.418;2024-03-29T10:24:28;1.45;;;0.50;;
36291;SDS011;22327;51.208;6.418;2024-03-29T10:27:29;1.42;;;0.40;;
36291;SDS011;22327;51.208;6.418;2024-03-29T10:30:30;0.65;;;0.30;;
36291;SDS011;22327;51.208;6.418;2024-03-29T10:33:33;0.75;;;0.30;;
36291;SDS011;22327;51.208;6.418;2024-03-29T10:36:34;0.57;;;0.30;;
36291;SDS011;22327;51.208;6.418;2024-03-29T10:39:35;0.63;;;0.40;;
36291;SDS011;22327;51.208;6.418;2024-03-29T10:42:36;1.27;;;0.40;;
36291;SDS011;22327;51.208;6.418;2024-03-29T10:45:38;1.50;;;0.50;;
36291;SDS011;22327;51.208;6.418;2024-03-29T10:48:39;0.73;;;0.30;;
36291;SDS011;22327;51.208;6.418;2024-03-29T10:51:42;1.20;;;0.40;;
36291;SDS011;22327;51.208;6.418;2024-03-29T10:54:44;0.63;;;0.30;;
36291;SDS011;22327;51.208;6.418;2024-03-29T10:57:45;0.98;;;0.30;;
36291;SDS011;22327;51.208;6.418;2024-03-29T11:00:49;1.80;;;0.30;;
36291;SDS011;22327;51.208;6.418;2024-03-29T11:03:58;0.88;;;0.43;;
36291;SDS011;22327;51.208;6.418;2024-03-29T11:07:06;1.33;;;0.52;;
36291;SDS011;22327;51.208;6.418;2024-03-29T11:10:13;1.35;;;0.50;;
36291;SDS011;22327;51.208;6.418;2024-03-29T11:16:36;0.75;;;0.30;;
36291;SDS011;22327;51.208;6.418;2024-03-29T11:19:37;0.52;;;0.25;;
36291;SDS011;22327;51.208;6.418;2024-03-29T11:22:38;3.40;;;0.30;;
36291;SDS011;22327;51.208;6.418;2024-03-29T11:25:39;2.33;;;0.25;;
36291;SDS011;22327;51.208;6.418;2024-03-29T11:28:40;1.58;;;0.30;;
36291;SDS011;22327;51.208;6.418;2024-03-29T11:31:44;0.57;;;0.30;;
36291;SDS011;22327;51.208;6.418;2024-03-29T11:34:50;2.75;;;0.40;;
36291;SDS011;22327;51.208;6.418;2024-03-29T11:37:58;1.80;;;0.30;;
36291;SDS011;22327;51.208;6.418;2024-03-29T11:41:12;1.00;;;0.22;;
36291;SDS011;22327;51.208;6.418;2024-03-29T11:44:14;0.20;;;0.20;;
36291;SDS011;22327;51.208;6.418;2024-03-29T11:47:15;0.75;;;0.40;;
36291;SDS011;22327;51.208;6.418;2024-03-29T11:50:18;1.10;;;0.20;;
36291;SDS011;22327;51.208;6.418;2024-03-29T11:53:19;1.40;;;0.20;;
36291;SDS011;22327;51.208;6.418;2024-03-29T11:56:20;1.38;;;0.38;;
36291;SDS011;22327;51.208;6.418;2024-03-29T11:59:21;2.53;;;0.40;;
36291;SDS011;22327;51.208;6.418;2024-03-29T12:02:22;0.30;;;0.20;;
36291;SDS011;22327;51.208;6.418;2024-03-29T12:05:23;0.93;;;0.30;;
36291;SDS011;22327;51.208;6.418;2024-03-29T12:08:25;2.15;;;0.28;;
36291;SDS011;22327;51.208;6.418;2024-03-29T12:11:28;2.15;;;0.30;;
36291;SDS011;22327;51.208;6.418;2024-03-29T12:14:29;0.40;;;0.30;;
36291;SDS011;22327;51.208;6.418;2024-03-29T12:17:35;1.83;;;0.28;;
36291;SDS011;22327;51.208;6.418;2024-03-29T12:20:38;0.77;;;0.40;;
36291;SDS011;22327;51.208;6.418;2024-03-29T12:23:39;1.35;;;0.30;;
36291;SDS011;22327;51.208;6.418;2024-03-29T12:26:47;1.27;;;0.40;;
36291;SDS011;22327;51.208;6.418;2024-03-29T12:29:50;1.30;;;0.40;;
36291;SDS011;22327;51.208;6.418;2024-03-29T12:33:24;0.70;;;0.20;;
36291;SDS011;22327;51.208;6.418;2024-03-29T12:36:24;0.30;;;0.20;;
36291;SDS011;22327;51.208;6.418;2024-03-29T12:39:29;0.30;;;0.10;;
36291;SDS011;22327;51.208;6.418;2024-03-29T12:42:33;2.33;;;0.40;;
36291;SDS011;22327;51.208;6.418;2024-03-29T12:45:34;0.35;;;0.20;;
36291;SDS011;22327;51.208;6.418;2024-03-29T12:48:36;0.88;;;0.63;;
36291;SDS011;22327;51.208;6.418;2024-03-29T12:51:37;0.38;;;0.25;;
36291;SDS011;22327;51.208;6.418;2024-03-29T12:54:40;0.30;;;0.30;;
36291;SDS011;22327;51.208;6.418;2024-03-29T12:57:40;0.32;;;0.20;;
36291;SDS011;22327;51.208;6.418;2024-03-29T13:00:42;0.40;;;0.30;;
36291;SDS011;22327;51.208;6.418;2024-03-29T13:03:44;0.90;;;0.30;;
36291;SDS011;22327;51.208;6.418;2024-03-29T13:06:44;0.50;;;0.20;;
36291;SDS011;22327;51.208;6.418;2024-03-29T13:09:45;0.77;;;0.30;;
36291;SDS011;22327;51.208;6.418;2024-03-29T13:12:45;0.45;;;0.20;;
36291;SDS011;22327;51.208;6.418;2024-03-29T13:15:49;0.28;;;0.20;;
36291;SDS011;22327;51.208;6.418;2024-03-29T13:18:50;1.45;;;0.20;;
36291;SDS011;22327;51.208;6.418;2024-03-29T13:21:51;0.30;;;0.30;;
36291;SDS011;22327;51.208;6.418;2024-03-29T13:24:51;0.68;;;0.20;;
36291;SDS011;22327;51.208;6.418;2024-03-29T13:27:53;0.43;;;0.30;;
36291;SDS011;22327;51.208;6.418;2024-03-29T13:30:54;1.00;;;0.30;;
36291;SDS011;22327;51.208;6.418;2024-03-29T13:33:56;0.40;;;0.32;;
36291;SDS011;22327;51.208;6.418;2024-03-29T13:37:03;0.30;;;0.20;;
36291;SDS011;22327;51.208;6.418;2024-03-29T13:40:05;0.73;;;0.17;;
36291;SDS011;22327;51.208;6.418;2024-03-29T13:43:07;0.37;;;0.37;;
36291;SDS011;22327;51.208;6.418;2024-03-29T13:46:08;1.02;;;0.20;;
36291;SDS011;22327;51.208;6.418;2024-03-29T13:49:08;0.45;;;0.20;;
36291;SDS011;22327;51.208;6.418;2024-03-29T13:52:09;1.92;;;0.75;;
36291;SDS011;22327;51.208;6.418;2024-03-29T13:55:10;1.17;;;0.20;;
36291;SDS011;22327;51.208;6.418;2024-03-29T13:58:10;0.30;;;0.20;;
36291;SDS011;22327;51.208;6.418;2024-03-29T14:01:11;0.80;;;0.20;;
36291;SDS011;22327;51.208;6.418;2024-03-29T14:04:11;0.65;;;0.30;;
36291;SDS011;22327;51.208;6.418;2024-03-29T14:07:12;0.68;;;0.17;;
36291;SDS011;22327;51.208;6.418;2024-03-29T14:10:14;0.17;;;0.10;;
36291;SDS011;22327;51.208;6.418;2024-03-29T14:13:15;0.43;;;0.30;;
36291;SDS011;22327;51.208;6.418;2024-03-29T14:16:15;0.85;;;0.50;;
36291;SDS011;22327;51.208;6.418;2024-03-29T14:19:16;0.40;;;0.20;;
36291;SDS011;22327;51.208;6.418;2024-03-29T14:22:16;0.30;;;0.15;;
36291;SDS011;22327;51.208;6.418;2024-03-29T14:25:19;0.35;;;0.20;;
36291;SDS011;22327;51.208;6.418;2024-03-29T14:28:19;0.95;;;0.10;;
36291;SDS011;22327;51.208;6.418;2024-03-29T14:31:20;0.52;;;0.20;;
36291;SDS011;22327;51.208;6.418;2024-03-29T14:34:21;0.40;;;0.20;;
36291;SDS011;22327;51.208;6.418;2024-03-29T14:37:22;0.85;;;0.22;;
36291;SDS011;22327;51.208;6.418;2024-03-29T14:40:23;0.45;;;0.40;;
36291;SDS011;22327;51.208;6.418;2024-03-29T14:43:24;0.35;;;0.30;;
36291;SDS011;22327;51.208;6.418;2024-03-29T14:46:24;0.30;;;0.13;;
36291;SDS011;22327;51.208;6.418;2024-03-29T14:49:26;0.95;;;0.20;;
36291;SDS011;22327;51.208;6.418;2024-03-29T14:52:27;0.30;;;0.22;;
36291;SDS011;22327;51.208;6.418;2024-03-29T14:55:27;0.50;;;0.20;;
36291;SDS011;22327;51.208;6.418;2024-03-29T14:58:28;1.13;;;0.20;;
36291;SDS011;22327;51.208;6.418;2024-03-29T15:01:28;0.55;;;0.25;;
36291;SDS011;22327;51.208;6.418;2024-03-29T15:04:29;0.65;;;0.28;;
36291;SDS011;22327;51.208;6.418;2024-03-29T15:07:29;0.38;;;0.20;;
36291;SDS011;22327;51.208;6.418;2024-03-29T15:10:30;0.30;;;0.20;;
36291;SDS011;22327;51.208;6.418;2024-03-29T15:13:32;0.28;;;0.20;;
36291;SDS011;22327;51.208;6.418;2024-03-29T15:16:32;0.40;;;0.20;;
36291;SDS011;22327;51.208;6.418;2024-03-29T15:19:33;0.50;;;0.10;;
36291;SDS011;22327;51.208;6.418;2024-03-29T15:22:33;0.43;;;0.20;;
36291;SDS011;22327;51.208;6.418;2024-03-29T15:25:34;0.30;;;0.30;;
36291;SDS011;22327;51.208;6.418;2024-03-29T15:28:35;1.08;;;0.30;;
36291;SDS011;22327;51.208;6.418;2024-03-29T15:31:54;0.80;;;0.10;;
36291;SDS011;22327;51.208;6.418;2024-03-29T15:34:55;1.17;;;0.30;;
36291;SDS011;22327;51.208;6.418;2024-03-29T15:37:56;0.43;;;0.43;;
36291;SDS011;22327;51.208;6.418;2024-03-29T15:40:58;0.30;;;0.30;;
36291;SDS011;22327;51.208;6.418;2024-03-29T15:43:59;1.65;;;0.40;;
36291;SDS011;22327;51.208;6.418;2024-03-29T15:47:00;0.55;;;0.20;;
36291;SDS011;22327;51.208;6.418;2024-03-29T15:50:00;0.95;;;0.30;;
36291;SDS011;22327;51.208;6.418;2024-03-29T15:53:01;1.65;;;0.40;;
36291;SDS011;22327;51.208;6.418;2024-03-29T15:56:01;0.65;;;0.20;;
36291;SDS011;22327;51.208;6.418;2024-03-29T15:59:02;0.80;;;0.28;;
36291;SDS011;22327;51.208;6.418;2024-03-29T16:02:03;0.40;;;0.30;;
36291;SDS011;22327;51.208;6.418;2024-03-29T16:05:04;0.63;;;0.38;;
36291;SDS011;22327;51.208;6.418;2024-03-29T16:08:05;0.77;;;0.20;;
36291;SDS011;22327;51.208;6.418;2024-03-29T16:11:06;0.30;;;0.30;;
36291;SDS011;22327;51.208;6.418;2024-03-29T16:14:07;1.02;;;0.20;;
36291;SDS011;22327;51.208;6.418;2024-03-29T16:17:08;0.25;;;0.17;;
36291;SDS011;22327;51.208;6.418;2024-03-29T16:20:09;0.52;;;0.30;;
36291;SDS011;22327;51.208;6.418;2024-03-29T16:23:10;1.52;;;0.30;;
36291;SDS011;22327;51.208;6.418;2024-03-29T16:26:14;0.45;;;0.30;;
36291;SDS011;22327;51.208;6.418;2024-03-29T16:29:15;1.08;;;0.20;;
36291;SDS011;22327;51.208;6.418;2024-03-29T16:32:15;1.38;;;0.30;;
36291;SDS011;22327;51.208;6.418;2024-03-29T16:35:16;0.30;;;0.20;;
36291;SDS011;22327;51.208;6.418;2024-03-29T16:38:17;1.08;;;0.20;;
36291;SDS011;22327;51.208;6.418;2024-03-29T16:41:17;1.23;;;0.30;;
36291;SDS011;22327;51.208;6.418;2024-03-29T16:44:18;0.50;;;0.20;;
36291;SDS011;22327;51.208;6.418;2024-03-29T16:47:20;0.68;;;0.20;;
36291;SDS011;22327;51.208;6.418;2024-03-29T16:50:21;0.35;;;0.25;;
36291;SDS011;22327;51.208;6.418;2024-03-29T16:53:22;0.60;;;0.30;;
36291;SDS011;22327;51.208;6.418;2024-03-29T16:56:23;0.40;;;0.30;;
36291;SDS011;22327;51.208;6.418;2024-03-29T16:59:24;1.42;;;0.57;;
36291;SDS011;22327;51.208;6.418;2024-03-29T17:02:25;0.68;;;0.22;;
36291;SDS011;22327;51.208;6.418;2024-03-29T17:05:25;1.15;;;0.35;;
36291;SDS011;22327;51.208;6.418;2024-03-29T17:08:26;0.22;;;0.22;;
36291;SDS011;22327;51.208;6.418;2024-03-29T17:11:26;0.55;;;0.32;;
36291;SDS011;22327;51.208;6.418;2024-03-29T17:14:27;0.22;;;0.22;;
36291;SDS011;22327;51.208;6.418;2024-03-29T17:17:29;0.65;;;0.22;;
36291;SDS011;22327;51.208;6.418;2024-03-29T17:20:29;0.22;;;0.22;;
36291;SDS011;22327;51.208;6.418;2024-03-29T17:23:30;2.22;;;0.40;;
36291;SDS011;22327;51.208;6.418;2024-03-29T17:26:30;2.63;;;0.50;;
36291;SDS011;22327;51.208;6.418;2024-03-29T17:29:31;0.40;;;0.30;;
36291;SDS011;22327;51.208;6.418;2024-03-29T17:32:31;0.90;;;0.30;;
36291;SDS011;22327;51.208;6.418;2024-03-29T17:35:32;1.75;;;0.40;;
36291;SDS011;22327;51.208;6.418;2024-03-29T17:38:33;0.95;;;0.35;;
36291;SDS011;22327;51.208;6.418;2024-03-29T17:41:37;1.52;;;0.50;;
36291;SDS011;22327;51.208;6.418;2024-03-29T17:44:38;0.80;;;0.45;;
36291;SDS011;22327;51.208;6.418;2024-03-29T17:47:38;0.70;;;0.40;;
36291;SDS011;22327;51.208;6.418;2024-03-29T17:50:39;2.00;;;0.50;;
36291;SDS011;22327;51.208;6.418;2024-03-29T17:53:39;1.67;;;0.50;;
36291;SDS011;22327;51.208;6.418;2024-03-29T17:56:40;1.70;;;0.85;;
36291;SDS011;22327;51.208;6.418;2024-03-29T17:59:42;2.72;;;0.63;;
36291;SDS011;22327;51.208;6.418;2024-03-29T18:02:42;2.65;;;0.75;;
36291;SDS011;22327;51.208;6.418;2024-03-29T18:05:43;1.73;;;0.90;;
36291;SDS011;22327;51.208;6.418;2024-03-29T18:08:43;2.28;;;0.65;;
36291;SDS011;22327;51.208;6.418;2024-03-29T18:11:44;1.80;;;0.85;;
36291;SDS011;22327;51.208;6.418;2024-03-29T18:14:44;1.80;;;0.60;;
36291;SDS011;22327;51.208;6.418;2024-03-29T18:17:47;0.93;;;0.43;;